Time;durP1;ratioP1;P1;durP2;ratioP2;P2;SDS_P1;SDS_P2;PMS_P1;PMS_P2;Temp;Humidity;BMP_temperature;BMP_pressure;BME280_temperature;BME280_humidity;BME280_pressure;Samples;Min_cycle;Max_cycle;Signal;HPM_P1;HPM_P2
2022/12/22 03:27:49;;;;;;;5.82;2.05;;;20.10;73.50;;;;;;4976241;28;20090;-77
2022/12/22 03:30:15;;;;;;;6.07;2.22;;;20.10;73.50;;;;;;4975955;28;20023;-77
2022/12/22 03:32:41;;;;;;;7.07;2.50;;;20.10;73.40;;;;;;4975417;28;20050;-77
2022/12/22 03:35:07;;;;;;;9.88;2.72;;;20.10;73.50;;;;;;4975975;28;20026;-77
2022/12/22 03:37:32;;;;;;;8.20;2.28;;;20.10;73.50;;;;;;4958518;28;20085;-77
2022/12/22 03:39:58;;;;;;;8.38;2.63;;;20.10;73.40;;;;;;4975701;28;20031;-77
2022/12/22 03:47:53;;;;;;;7.53;2.38;;;20.10;73.40;;;;;;4960854;28;20030;-77
2022/12/22 03:50:18;;;;;;;7.57;2.30;;;20.10;73.40;;;;;;4975503;28;20027;-77
2022/12/22 03:52:44;;;;;;;6.93;2.47;;;20.10;73.40;;;;;;4976658;28;20058;-77
2022/12/22 03:55:10;;;;;;;6.82;2.20;;;20.10;73.50;;;;;;4994986;28;20034;-77
2022/12/22 03:57:35;;;;;;;7.97;2.47;;;20.10;73.50;;;;;;4995045;28;20408;-77
2022/12/22 04:00:01;;;;;;;8.00;2.70;;;20.10;73.50;;;;;;4977798;28;20026;-77
2022/12/22 04:02:27;;;;;;;7.50;2.28;;;20.10;73.50;;;;;;4994323;28;20026;-77
2022/12/22 04:04:52;;;;;;;7.32;2.63;;;20.10;73.50;;;;;;4994245;28;20031;-77
2022/12/22 04:07:18;;;;;;;7.03;2.33;;;20.10;73.50;;;;;;4995074;28;20031;-77
2022/12/22 04:12:52;;;;;;;7.10;2.53;;;20.20;73.70;;;;;;4994189;28;20042;-76
2022/12/22 04:15:13;;;;;;;10.57;2.47;;;20.10;73.50;;;;;;4979957;28;20448;-77
2022/12/22 04:17:39;;;;;;;8.35;2.72;;;20.10;73.50;;;;;;4994387;28;20488;-77
2022/12/22 04:20:05;;;;;;;9.57;2.67;;;20.10;73.60;;;;;;4994538;28;20026;-77
2022/12/22 04:22:31;;;;;;;7.80;2.55;;;20.10;73.50;;;;;;4994279;28;20031;-77
2022/12/22 04:24:56;;;;;;;10.40;2.67;;;20.10;73.60;;;;;;4994353;28;20486;-77
2022/12/22 04:27:22;;;;;;;8.82;2.80;;;20.10;73.50;;;;;;4994149;28;20073;-77
2022/12/22 04:29:48;;;;;;;11.82;3.00;;;20.10;73.50;;;;;;4994190;28;20030;-77
2022/12/22 04:32:13;;;;;;;9.50;2.97;;;20.10;73.50;;;;;;4994184;28;20026;-77
2022/12/22 04:34:39;;;;;;;10.60;3.03;;;20.10;73.60;;;;;;4994247;28;20026;-77
2022/12/22 04:37:04;;;;;;;8.68;2.72;;;20.10;73.50;;;;;;4976896;28;20388;-77
2022/12/22 04:39:30;;;;;;;8.77;3.00;;;20.10;73.50;;;;;;4993951;28;20030;-76
2022/12/22 04:41:56;;;;;;;8.13;2.65;;;20.20;73.60;;;;;;4994081;28;20026;-77
2022/12/22 04:44:21;;;;;;;10.45;2.90;;;20.10;73.50;;;;;;4993093;28;20034;-77
2022/12/22 04:46:47;;;;;;;10.18;3.13;;;20.20;73.50;;;;;;4994243;28;20026;-77
2022/12/22 04:49:12;;;;;;;8.93;2.70;;;20.10;73.40;;;;;;4993849;28;20026;-77
2022/12/22 04:51:38;;;;;;;10.73;2.80;;;20.10;73.30;;;;;;4994032;28;20038;-77
2022/12/22 04:54:04;;;;;;;9.13;3.17;;;20.10;73.30;;;;;;4993596;28;20397;-77
2022/12/22 04:56:29;;;;;;;9.18;3.00;;;20.10;73.30;;;;;;4993726;28;20026;-77
2022/12/22 04:58:55;;;;;;;10.98;2.97;;;20.10;73.30;;;;;;4993475;28;20030;-77
2022/12/22 05:01:20;;;;;;;8.20;2.53;;;20.10;73.30;;;;;;4993633;28;20393;-77
2022/12/22 05:03:46;;;;;;;9.20;2.90;;;20.10;73.20;;;;;;4976420;28;20534;-77
2022/12/22 05:06:12;;;;;;;9.80;2.80;;;20.10;73.30;;;;;;4993535;28;20026;-77
2022/12/22 05:08:38;;;;;;;8.18;2.58;;;20.20;73.30;;;;;;4976030;28;20045;-77
2022/12/22 05:11:03;;;;;;;9.00;3.05;;;20.20;73.20;;;;;;4976236;28;20031;-77
2022/12/22 05:13:32;;;;;;;8.35;2.63;;;20.10;73.20;;;;;;4975806;28;20156;-77
2022/12/22 05:16:06;;;;;;;7.68;2.53;;;20.10;73.20;;;;;;4976323;28;20034;-77
2022/12/22 05:18:32;;;;;;;9.60;2.78;;;20.10;73.30;;;;;;4976643;28;20019;-77
2022/12/22 05:21:00;;;;;;;9.35;2.75;;;20.10;73.40;;;;;;4976180;28;20058;-76
2022/12/22 05:23:26;;;;;;;8.25;2.67;;;20.10;73.40;;;;;;4976279;28;20026;-77
2022/12/22 05:25:51;;;;;;;9.13;2.80;;;20.10;73.50;;;;;;4993327;28;20149;-77
2022/12/22 05:28:17;;;;;;;10.15;2.88;;;20.10;73.50;;;;;;4992886;28;20101;-77
2022/12/22 05:30:42;;;;;;;12.80;2.85;;;20.10;74.50;;;;;;4993174;28;20105;-77
2022/12/22 05:33:08;;;;;;;7.70;2.33;;;20.10;73.50;;;;;;4993597;28;20018;-77
2022/12/22 05:35:34;;;;;;;7.00;2.03;;;20.10;73.50;;;;;;4993062;28;20105;-77
2022/12/22 05:37:59;;;;;;;8.07;3.00;;;20.10;73.40;;;;;;4975750;28;20490;-77
2022/12/22 05:40:25;;;;;;;7.47;2.47;;;20.10;73.40;;;;;;4993104;28;20117;-77
2022/12/22 05:42:50;;;;;;;8.18;2.75;;;20.10;73.40;;;;;;4992819;28;20109;-77
2022/12/22 05:45:17;;;;;;;8.38;2.97;;;20.10;73.40;;;;;;4993184;28;20117;-77
2022/12/22 05:47:44;;;;;;;10.82;3.15;;;20.10;73.40;;;;;;4959616;28;20485;-77
2022/12/22 05:50:11;;;;;;;8.57;3.15;;;20.10;73.40;;;;;;4975877;28;20113;-77
2022/12/22 05:52:36;;;;;;;9.35;2.90;;;20.10;73.30;;;;;;4975417;28;20110;-77
2022/12/22 05:55:03;;;;;;;9.25;2.90;;;20.10;73.30;;;;;;4975512;28;20109;-77
2022/12/22 05:57:28;;;;;;;11.25;2.85;;;20.10;73.30;;;;;;4992577;28;20030;-77
2022/12/22 05:59:54;;;;;;;9.25;2.72;;;20.10;73.30;;;;;;4992951;28;20037;-77
2022/12/22 06:02:19;;;;;;;7.15;2.58;;;20.10;73.30;;;;;;4992919;28;20034;-77
2022/12/22 06:04:45;;;;;;;7.93;3.08;;;20.10;73.30;;;;;;4975622;28;20027;-77
2022/12/22 06:07:11;;;;;;;8.13;2.13;;;20.10;73.30;;;;;;4959267;28;20523;-77
2022/12/22 06:09:36;;;;;;;9.45;2.80;;;20.10;73.30;;;;;;4992588;28;20047;-77
2022/12/22 06:12:02;;;;;;;8.23;2.78;;;20.10;73.40;;;;;;4975431;28;20431;-77
2022/12/22 06:14:28;;;;;;;8.20;2.55;;;20.10;73.50;;;;;;4975487;28;20034;-77
2022/12/22 06:16:53;;;;;;;10.00;3.28;;;20.10;73.30;;;;;;4992890;28;20029;-77
2022/12/22 06:19:19;;;;;;;8.15;2.40;;;20.10;73.30;;;;;;4992793;28;20022;-77
2022/12/22 06:21:45;;;;;;;8.00;2.85;;;20.10;73.30;;;;;;4992986;28;20023;-77
2022/12/22 06:24:11;;;;;;;8.05;2.63;;;20.10;73.30;;;;;;4992681;28;20497;-77
2022/12/22 06:26:36;;;;;;;8.88;2.10;;;20.10;73.30;;;;;;4992479;28;20054;-77
2022/12/22 06:29:02;;;;;;;8.27;2.72;;;20.10;73.30;;;;;;4992684;28;20496;-77
2022/12/22 06:31:27;;;;;;;9.20;3.03;;;20.10;73.30;;;;;;4975334;28;20029;-77
2022/12/22 06:33:53;;;;;;;8.27;2.67;;;20.10;73.30;;;;;;4992714;28;20027;-77
2022/12/22 06:36:19;;;;;;;7.38;2.20;;;20.10;73.30;;;;;;4992666;28;20441;-77
2022/12/22 06:38:44;;;;;;;6.90;2.78;;;20.10;73.30;;;;;;4992554;28;20500;-77
2022/12/22 06:41:10;;;;;;;7.50;2.67;;;20.10;73.30;;;;;;4975025;28;20033;-77
2022/12/22 06:43:36;;;;;;;6.95;2.58;;;20.10;73.20;;;;;;4992570;28;20064;-77
2022/12/22 06:46:01;;;;;;;8.75;3.03;;;20.10;73.30;;;;;;4992583;28;20172;-77
2022/12/22 06:48:27;;;;;;;7.95;2.20;;;20.10;73.20;;;;;;4992583;28;20439;-76
2022/12/22 06:50:59;;;;;;;7.40;2.60;;;20.00;73.10;;;;;;4992507;28;20101;-77
2022/12/22 06:53:25;;;;;;;6.88;2.53;;;20.10;73.20;;;;;;4975296;28;20038;-77
2022/12/22 06:55:51;;;;;;;6.57;2.40;;;20.10;73.20;;;;;;4975046;28;20026;-78
2022/12/22 06:58:16;;;;;;;7.25;2.22;;;20.10;73.20;;;;;;4992442;28;20030;-77
2022/12/22 07:00:42;;;;;;;8.38;2.65;;;20.10;73.20;;;;;;4992127;28;20050;-77
2022/12/22 07:03:08;;;;;;;6.22;2.25;;;20.10;73.20;;;;;;4992459;28;20536;-78
2022/12/22 07:05:33;;;;;;;8.75;3.33;;;20.10;73.20;;;;;;4992308;28;20038;-78
2022/12/22 07:07:59;;;;;;;6.72;2.50;;;20.00;73.20;;;;;;4976817;28;20026;-78
2022/12/22 07:13:42;;;;;;;6.25;2.35;;;20.10;73.40;;;;;;4996303;28;20037;-77
2022/12/22 07:16:01;;;;;;;7.35;2.47;;;20.10;73.00;;;;;;4991663;28;20057;-78
2022/12/22 07:18:31;;;;;;;6.20;2.45;;;20.10;72.40;;;;;;4995625;28;20081;-78
2022/12/22 07:20:57;;;;;;;10.43;2.90;;;20.10;72.30;;;;;;4978466;28;20068;-78
2022/12/22 07:23:23;;;;;;;9.52;3.00;;;20.10;72.50;;;;;;4978353;28;20033;-78
2022/12/22 07:25:49;;;;;;;10.15;2.58;;;20.10;72.60;;;;;;4977980;28;20495;-78
2022/12/22 07:28:15;;;;;;;7.97;2.78;;;20.10;72.70;;;;;;4995538;28;20062;-78
2022/12/22 07:30:40;;;;;;;9.00;3.03;;;20.10;72.70;;;;;;4994554;28;20046;-78
2022/12/22 07:33:06;;;;;;;7.57;2.95;;;20.10;72.80;;;;;;4995037;28;20065;-78
2022/12/22 07:35:31;;;;;;;5.43;2.20;;;20.10;72.90;;;;;;4994612;28;20034;-77
2022/12/22 07:37:57;;;;;;;9.98;2.85;;;20.10;72.90;;;;;;4977179;28;20061;-77
2022/12/22 07:40:23;;;;;;;8.18;2.70;;;20.10;72.90;;;;;;4977507;28;20034;-77
2022/12/22 07:42:48;;;;;;;7.35;2.67;;;20.10;72.90;;;;;;4994543;28;20076;-77
2022/12/22 07:45:16;;;;;;;9.00;3.00;;;20.10;72.90;;;;;;4994535;28;20023;-77
2022/12/22 07:47:41;;;;;;;6.68;2.78;;;20.10;72.90;;;;;;4977338;28;20105;-77
2022/12/22 07:50:31;;;;;;;7.18;2.55;;;20.10;73.00;;;;;;4994481;28;20101;-77
2022/12/22 07:52:58;;;;;;;10.38;3.15;;;20.10;73.00;;;;;;4979466;28;20488;-77
2022/12/22 07:55:24;;;;;;;8.07;2.30;;;20.00;73.00;;;;;;4976765;28;20030;-77
2022/12/22 07:57:50;;;;;;;5.57;2.13;;;20.10;73.00;;;;;;4977053;28;20048;-78
2022/12/22 08:00:17;;;;;;;8.93;2.60;;;20.10;73.00;;;;;;4994306;28;20575;-78
2022/12/22 08:02:46;;;;;;;7.25;2.72;;;20.10;73.00;;;;;;4976988;28;20026;-77
2022/12/22 08:05:12;;;;;;;7.18;2.38;;;20.10;73.00;;;;;;4994125;28;20489;-77
2022/12/22 08:07:38;;;;;;;9.02;2.60;;;20.00;73.00;;;;;;4993737;28;20088;-77
2022/12/22 08:10:04;;;;;;;8.32;2.80;;;20.10;73.00;;;;;;4993972;28;20078;-77
2022/12/22 08:12:31;;;;;;;9.48;2.63;;;20.10;73.00;;;;;;4994187;28;20077;-78
2022/12/22 08:14:57;;;;;;;6.88;2.65;;;20.00;73.00;;;;;;4976863;28;20113;-77
2022/12/22 08:17:22;;;;;;;8.20;3.08;;;20.00;72.90;;;;;;4993991;28;20096;-77
2022/12/22 08:19:48;;;;;;;6.28;2.40;;;20.10;73.00;;;;;;4992716;28;20427;-77
2022/12/22 08:22:14;;;;;;;8.32;2.75;;;20.10;73.10;;;;;;4993635;28;20058;-77
2022/12/22 08:24:39;;;;;;;5.82;2.78;;;20.10;73.10;;;;;;4993664;28;20026;-77
2022/12/22 08:27:07;;;;;;;10.45;2.65;;;20.10;73.00;;;;;;4993612;28;20030;-77
2022/12/22 08:29:35;;;;;;;6.13;2.33;;;20.10;73.00;;;;;;4976298;28;20098;-77
2022/12/22 08:32:01;;;;;;;9.30;2.97;;;20.00;73.00;;;;;;4976486;28;20029;-77
2022/12/22 08:34:26;;;;;;;6.60;2.22;;;20.00;73.00;;;;;;4976495;28;20022;-77
2022/12/22 08:36:54;;;;;;;9.80;2.78;;;20.10;73.00;;;;;;4976089;28;20097;-77
2022/12/22 08:39:20;;;;;;;7.22;2.60;;;20.10;73.00;;;;;;4993503;28;20015;-77
2022/12/22 08:41:48;;;;;;;7.63;2.28;;;20.10;73.00;;;;;;4994117;28;20081;-77
2022/12/22 08:44:14;;;;;;;8.30;2.45;;;20.10;73.00;;;;;;4977152;28;20030;-77
2022/12/22 08:46:40;;;;;;;6.00;2.55;;;20.10;73.00;;;;;;4993881;28;20034;-77
2022/12/22 08:49:06;;;;;;;6.78;2.67;;;20.10;73.00;;;;;;4976675;28;20382;-78
2022/12/22 08:51:31;;;;;;;6.32;2.60;;;20.10;73.00;;;;;;4993650;28;20116;-77
2022/12/22 08:53:57;;;;;;;6.40;2.30;;;20.10;72.90;;;;;;4976242;28;20030;-77
2022/12/22 08:56:23;;;;;;;6.60;2.08;;;20.10;73.00;;;;;;4993839;28;20034;-77
2022/12/22 08:58:48;;;;;;;8.52;2.53;;;20.10;72.90;;;;;;4993709;28;20033;-78
2022/12/22 09:01:17;;;;;;;7.68;2.63;;;20.10;73.00;;;;;;4993687;28;20113;-78
2022/12/22 09:03:46;;;;;;;5.28;2.00;;;20.10;73.00;;;;;;4993861;28;20033;-78
2022/12/22 09:06:11;;;;;;;6.63;2.65;;;20.10;73.00;;;;;;4976447;28;20033;-77
2022/12/22 09:08:37;;;;;;;7.80;2.13;;;20.10;73.00;;;;;;4993429;28;20038;-77
2022/12/22 09:11:03;;;;;;;5.10;2.50;;;20.10;73.00;;;;;;4993177;28;20071;-78
2022/12/22 09:13:29;;;;;;;7.38;2.20;;;20.10;73.00;;;;;;4988295;28;20030;-77
2022/12/22 09:15:55;;;;;;;5.90;1.80;;;20.10;73.00;;;;;;4992773;28;20057;-77
2022/12/22 09:18:20;;;;;;;6.93;2.35;;;20.10;72.60;;;;;;4992255;28;20053;-79
2022/12/22 09:20:47;;;;;;;5.72;2.30;;;20.10;70.70;;;;;;4991819;28;20030;-77
2022/12/22 09:23:13;;;;;;;5.78;2.30;;;20.10;70.20;;;;;;4975685;28;20494;-78
2022/12/22 09:25:38;;;;;;;6.75;1.98;;;20.10;70.00;;;;;;4974970;28;20142;-77
2022/12/22 09:28:06;;;;;;;7.38;2.40;;;20.00;69.90;;;;;;4992513;28;20023;-79
2022/12/22 09:30:31;;;;;;;5.50;2.03;;;20.00;69.30;;;;;;4992370;28;20515;-78
2022/12/22 09:32:57;;;;;;;4.10;1.83;;;20.00;69.30;;;;;;4992480;28;20031;-79
2022/12/22 09:35:23;;;;;;;5.00;2.33;;;20.00;68.70;;;;;;4992342;28;20042;-76
2022/12/22 09:37:48;;;;;;;4.03;2.00;;;19.90;68.30;;;;;;4992333;28;20030;-76
2022/12/22 09:40:14;;;;;;;6.07;1.70;;;20.00;68.60;;;;;;4992747;28;20492;-77
2022/12/22 09:42:40;;;;;;;4.88;1.77;;;20.00;68.20;;;;;;4975086;28;20511;-77
2022/12/22 09:45:18;;;;;;;5.22;2.35;;;20.00;68.10;;;;;;4992514;28;20065;-77
2022/12/22 09:47:52;;;;;;;4.50;1.92;;;20.00;68.00;;;;;;4975683;28;20027;-77
2022/12/22 09:50:22;;;;;;;4.50;2.03;;;20.00;69.20;;;;;;4975366;28;20059;-77
2022/12/22 09:52:50;;;;;;;3.80;1.75;;;20.00;68.10;;;;;;4975316;28;20033;-79
2022/12/22 09:55:24;;;;;;;3.92;1.75;;;20.00;67.80;;;;;;4975257;28;20424;-77
2022/12/22 09:57:51;;;;;;;6.50;1.67;;;20.00;67.50;;;;;;4992320;28;20026;-76
2022/12/22 10:00:19;;;;;;;3.47;1.60;;;19.90;67.60;;;;;;4975040;28;20493;-77
2022/12/22 10:03:06;;;;;;;3.97;1.98;;;19.90;67.70;;;;;;4974687;28;20030;-77
2022/12/22 10:05:44;;;;;;;4.78;2.05;;;20.00;67.50;;;;;;4974635;28;20125;-77
2022/12/22 10:08:15;;;;;;;5.47;1.80;;;19.90;67.50;;;;;;4992129;28;20030;-77
2022/12/22 10:10:40;;;;;;;5.35;2.17;;;20.00;67.60;;;;;;4992295;28;20528;-77
2022/12/22 10:13:09;;;;;;;5.25;2.03;;;20.00;67.40;;;;;;4958712;28;20033;-77
2022/12/22 10:15:37;;;;;;;3.92;1.50;;;19.90;67.20;;;;;;4974845;28;20133;-77
2022/12/22 10:18:12;;;;;;;4.53;1.67;;;19.90;67.20;;;;;;4974533;28;20050;-78
2022/12/22 10:20:38;;;;;;;3.65;1.80;;;19.90;67.60;;;;;;4992100;28;20101;-77
2022/12/22 10:23:12;;;;;;;6.28;1.77;;;20.00;67.30;;;;;;4974614;28;20453;-77
2022/12/22 10:25:49;;;;;;;5.30;2.00;;;19.90;67.20;;;;;;4974776;28;20035;-77
2022/12/22 10:28:20;;;;;;;4.75;1.90;;;19.90;68.00;;;;;;4958965;28;20579;-78
2022/12/22 10:30:46;;;;;;;2.70;1.63;;;19.90;67.00;;;;;;4974936;28;20073;-78
2022/12/22 10:33:13;;;;;;;4.40;1.52;;;19.90;66.90;;;;;;4974562;28;20027;-77
2022/12/22 10:35:42;;;;;;;2.97;1.50;;;19.90;67.10;;;;;;4974897;28;20096;-77
2022/12/22 10:38:21;;;;;;;3.30;1.52;;;19.90;66.90;;;;;;4991852;28;20401;-76
2022/12/22 10:40:49;;;;;;;3.25;1.80;;;19.90;67.00;;;;;;4974534;28;20057;-78
2022/12/22 10:43:32;;;;;;;3.30;1.50;;;19.90;66.90;;;;;;4994331;28;20516;-77
2022/12/22 10:45:57;;;;;;;4.93;1.42;;;19.90;66.90;;;;;;4978278;28;20093;-77
2022/12/22 10:48:38;;;;;;;4.38;1.95;;;19.90;66.80;;;;;;4995491;28;20401;-77
2022/12/22 10:51:05;;;;;;;3.05;1.38;;;19.90;66.70;;;;;;4978358;28;20081;-77
2022/12/22 10:53:43;;;;;;;3.95;1.42;;;19.90;66.60;;;;;;4978086;28;20404;-77
2022/12/22 10:56:21;;;;;;;2.92;1.52;;;19.90;66.60;;;;;;4995369;28;20026;-77
2022/12/22 10:59:06;;;;;;;3.58;1.50;;;19.90;66.60;;;;;;4978050;28;20030;-77
2022/12/22 11:01:34;;;;;;;2.22;1.05;;;19.90;66.60;;;;;;4995148;28;20023;-76
2022/12/22 11:04:22;;;;;;;3.05;1.40;;;19.90;66.60;;;;;;4977858;28;20124;-80
2022/12/22 11:06:48;;;;;;;3.35;1.48;;;19.90;66.60;;;;;;4978798;28;20062;-77
2022/12/22 11:09:14;;;;;;;3.83;1.40;;;19.90;66.60;;;;;;4977951;28;20056;-79
2022/12/22 11:11:46;;;;;;;2.78;1.30;;;19.90;66.50;;;;;;4995339;28;20026;-80
2022/12/22 11:14:14;;;;;;;2.60;1.35;;;19.90;66.50;;;;;;4995039;28;20113;-80
2022/12/22 11:16:50;;;;;;;3.38;1.35;;;19.90;66.60;;;;;;4994818;28;20033;-79
2022/12/22 11:19:37;;;;;;;2.28;1.17;;;19.90;66.60;;;;;;4977743;28;20056;-77
2022/12/22 11:22:16;;;;;;;2.72;1.27;;;19.90;66.50;;;;;;4994752;28;20030;-78
2022/12/22 11:25:14;;;;;;;2.97;1.30;;;19.90;66.50;;;;;;4978618;28;20477;-79
2022/12/22 11:27:46;;;;;;;1.98;0.98;;;19.90;66.80;;;;;;4990656;28;20038;-80
2022/12/22 11:30:20;;;;;;;4.15;1.75;;;19.90;66.80;;;;;;4977274;28;20061;-80
2022/12/22 11:33:04;;;;;;;3.72;1.30;;;19.90;66.80;;;;;;4977331;28;20018;-80
2022/12/22 11:35:48;;;;;;;2.53;1.25;;;19.90;66.70;;;;;;4981070;28;20030;-80
2022/12/22 11:38:20;;;;;;;1.65;1.00;;;19.90;66.70;;;;;;4982025;28;20535;-80
2022/12/22 11:40:48;;;;;;;2.30;1.10;;;19.90;66.70;;;;;;4993966;28;20436;-80
2022/12/22 11:43:17;;;;;;;3.80;1.10;;;19.90;66.70;;;;;;4975874;28;20058;-80
2022/12/22 11:46:01;;;;;;;2.13;1.25;;;19.90;66.50;;;;;;4994509;28;20116;-80
2022/12/22 11:48:42;;;;;;;2.17;1.30;;;19.90;66.40;;;;;;4993628;28;20018;-80
2022/12/22 11:51:11;;;;;;;3.10;1.50;;;19.90;66.50;;;;;;4979096;28;20018;-80
2022/12/22 11:54:02;;;;;;;2.50;1.10;;;19.90;66.50;;;;;;4994226;28;20057;-80
2022/12/22 11:56:46;;;;;;;2.92;1.15;;;19.90;66.50;;;;;;4977207;28;20536;-80
2022/12/22 11:59:27;;;;;;;1.95;1.10;;;19.90;66.40;;;;;;4977197;28;20018;-80
2022/12/22 12:02:14;;;;;;;3.03;1.00;;;19.90;66.50;;;;;;4984607;28;20083;-77
2022/12/22 12:04:58;;;;;;;4.13;1.20;;;19.90;66.40;;;;;;4964170;28;20026;-77
2022/12/22 12:07:31;;;;;;;11.13;1.92;;;19.90;66.40;;;;;;4992977;28;20030;-76
2022/12/22 12:10:05;;;;;;;24.30;4.60;;;19.90;66.70;;;;;;4980676;28;20449;-77
2022/12/22 12:12:58;;;;;;;21.83;4.70;;;20.00;67.40;;;;;;4993353;28;20030;-76
2022/12/22 12:15:30;;;;;;;30.27;5.90;;;20.00;67.80;;;;;;4994234;28;20018;-76
2022/12/22 12:18:10;;;;;;;19.60;4.55;;;20.00;68.30;;;;;;4993122;28;20034;-76
2022/12/22 12:21:09;;;;;;;16.92;4.55;;;20.00;68.50;;;;;;4993139;28;20032;-76
2022/12/22 12:24:15;;;;;;;25.55;5.03;;;20.00;68.80;;;;;;4979582;28;20109;-77
2022/12/22 12:27:02;;;;;;;25.20;5.35;;;20.00;69.00;;;;;;4992951;28;20033;-76
2022/12/22 12:29:40;;;;;;;16.30;4.28;;;20.00;69.00;;;;;;4992898;28;20034;-81
2022/12/22 12:32:08;;;;;;;23.90;4.53;;;20.00;69.00;;;;;;4979345;28;20030;-76
2022/12/22 12:34:36;;;;;;;20.60;4.53;;;20.00;69.10;;;;;;4994992;28;20063;-78
2022/12/22 12:37:25;;;;;;;13.60;4.00;;;20.00;69.00;;;;;;4977815;28;20122;-79
2022/12/22 12:40:19;;;;;;;17.35;4.30;;;20.00;69.00;;;;;;4978993;28;20026;-78
2022/12/22 12:42:45;;;;;;;16.20;4.05;;;20.00;69.00;;;;;;4994520;28;20054;-79
2022/12/22 12:45:32;;;;;;;11.82;4.72;;;20.00;68.90;;;;;;4977270;28;20022;-78
2022/12/22 12:48:20;;;;;;;15.60;3.35;;;20.00;68.80;;;;;;4994770;28;20026;-79
2022/12/22 12:50:58;;;;;;;15.10;3.63;;;20.00;68.80;;;;;;4994762;28;20018;-78
2022/12/22 12:53:27;;;;;;;12.98;3.42;;;20.00;68.70;;;;;;4986865;28;20509;-79
2022/12/22 12:55:54;;;;;;;14.23;3.72;;;20.00;68.60;;;;;;4957830;28;20027;-78
2022/12/22 12:58:37;;;;;;;9.40;3.90;;;20.00;68.50;;;;;;4957667;28;20023;-77
2022/12/22 13:01:04;;;;;;;8.68;2.97;;;20.00;68.50;;;;;;4978247;28;20029;-78
2022/12/22 13:03:30;;;;;;;10.60;3.50;;;20.00;68.50;;;;;;4977049;28;20030;-78
2022/12/22 13:06:00;;;;;;;8.70;2.90;;;20.00;68.40;;;;;;4993714;28;20050;-77
2022/12/22 13:08:30;;;;;;;11.07;3.85;;;20.00;68.40;;;;;;4994244;28;20025;-78
2022/12/22 13:10:55;;;;;;;6.60;2.58;;;20.00;68.30;;;;;;4976892;28;20465;-79
2022/12/22 13:13:24;;;;;;;11.00;2.80;;;20.00;68.30;;;;;;4993984;28;20105;-79
2022/12/22 13:15:59;;;;;;;12.20;2.92;;;20.00;68.20;;;;;;4994555;28;20038;-79
2022/12/22 13:18:27;;;;;;;7.32;3.38;;;20.00;68.20;;;;;;4994337;28;20037;-79
2022/12/22 13:21:01;;;;;;;8.82;2.88;;;20.00;68.20;;;;;;4994218;28;20037;-79
2022/12/22 13:23:38;;;;;;;8.30;3.08;;;20.00;68.10;;;;;;4976713;28;20022;-78
2022/12/22 13:26:12;;;;;;;9.15;3.08;;;20.00;68.10;;;;;;4993729;28;20053;-78
2022/12/22 13:28:39;;;;;;;9.25;2.58;;;20.00;68.20;;;;;;4976689;28;20019;-79
2022/12/22 13:31:42;;;;;;;7.00;2.50;;;20.00;68.10;;;;;;4976595;28;20030;-79
2022/12/22 13:34:41;;;;;;;5.65;2.25;;;20.00;68.20;;;;;;4909904;29;20087;-79
2022/12/22 13:37:21;;;;;;;9.52;2.67;;;20.00;68.10;;;;;;4895305;29;20033;-79
2022/12/22 13:40:06;;;;;;;6.40;2.42;;;20.00;68.10;;;;;;4896271;29;20013;-78
2022/12/22 13:42:42;;;;;;;4.90;2.05;;;20.00;68.00;;;;;;4906976;29;20136;-79
2022/12/22 13:45:43;;;;;;;7.25;2.08;;;20.00;68.10;;;;;;4914512;29;20107;-78
2022/12/22 13:48:24;;;;;;;9.18;2.70;;;20.00;68.10;;;;;;4910254;29;20047;-78
2022/12/22 13:50:52;;;;;;;7.93;2.58;;;20.00;68.10;;;;;;4914921;29;20058;-78
2022/12/22 13:53:25;;;;;;;5.32;2.15;;;20.00;68.10;;;;;;4909292;29;20045;-77
2022/12/22 13:55:51;;;;;;;7.07;1.98;;;20.00;68.10;;;;;;4895892;29;20535;-79
2022/12/22 13:58:28;;;;;;;8.18;2.15;;;20.00;68.10;;;;;;4895429;29;20040;-73
2022/12/22 14:01:09;;;;;;;10.77;2.45;;;20.00;68.20;;;;;;4895922;29;20032;-74
2022/12/22 14:03:38;;;;;;;6.80;2.28;;;20.00;68.20;;;;;;4912092;29;20032;-75
2022/12/22 14:06:22;;;;;;;6.38;2.25;;;20.00;68.20;;;;;;4912881;29;20094;-75
2022/12/22 14:08:47;;;;;;;5.47;2.08;;;20.00;68.20;;;;;;4974929;28;20050;-74
2022/12/22 14:11:13;;;;;;;5.78;1.92;;;20.00;68.20;;;;;;4992414;28;20539;-74
2022/12/22 14:13:39;;;;;;;4.10;1.80;;;20.00;68.20;;;;;;4975614;28;20037;-74
2022/12/22 14:16:04;;;;;;;5.50;1.98;;;20.00;68.10;;;;;;4993415;28;20030;-74
2022/12/22 14:18:31;;;;;;;6.18;1.73;;;20.00;68.20;;;;;;4979494;28;20022;-74
2022/12/22 14:20:57;;;;;;;3.47;1.52;;;20.00;68.20;;;;;;4979352;28;20461;-74
2022/12/22 14:23:26;;;;;;;5.35;2.00;;;20.00;68.20;;;;;;4979553;28;20026;-74
2022/12/22 14:25:52;;;;;;;5.07;1.67;;;20.00;68.20;;;;;;4979131;28;20022;-74
2022/12/22 14:28:25;;;;;;;4.90;1.95;;;20.00;68.10;;;;;;4979046;28;20030;-74
2022/12/22 14:30:58;;;;;;;7.80;2.28;;;20.00;68.10;;;;;;4977772;28;20014;-74
2022/12/22 14:33:26;;;;;;;4.28;1.55;;;20.00;68.10;;;;;;4979036;28;20461;-73
2022/12/22 14:36:05;;;;;;;6.03;1.65;;;20.00;68.10;;;;;;4996553;28;20381;-73
2022/12/22 14:38:42;;;;;;;4.25;2.03;;;20.00;68.10;;;;;;4996394;28;20033;-73
2022/12/22 14:41:10;;;;;;;4.20;1.63;;;20.00;68.10;;;;;;4979234;28;20027;-74
2022/12/22 14:43:35;;;;;;;6.85;1.80;;;20.00;68.10;;;;;;4979038;28;20033;-74
2022/12/22 14:46:06;;;;;;;2.17;1.30;;;20.00;69.10;;;;;;4978649;28;20066;-74
2022/12/22 14:48:34;;;;;;;3.88;1.35;;;20.00;68.00;;;;;;4979081;28;20026;-73
2022/12/22 14:51:00;;;;;;;5.10;1.42;;;20.00;68.00;;;;;;4978793;28;20022;-74
2022/12/22 14:53:47;;;;;;;4.38;1.70;;;20.00;68.00;;;;;;4978400;28;20101;-73
2022/12/22 14:56:13;;;;;;;3.72;1.48;;;20.00;68.00;;;;;;4996309;28;20018;-74
2022/12/22 14:58:40;;;;;;;3.50;1.77;;;20.00;68.00;;;;;;4978858;28;20031;-73
2022/12/22 15:01:25;;;;;;;4.25;1.30;;;20.00;67.90;;;;;;4978818;28;20489;-74
2022/12/22 15:04:02;;;;;;;3.30;1.33;;;20.00;67.90;;;;;;4979050;28;20569;-73
2022/12/22 15:06:28;;;;;;;2.78;1.15;;;20.00;67.90;;;;;;4995852;28;20023;-74
2022/12/22 15:09:14;;;;;;;4.05;1.23;;;20.00;67.80;;;;;;4995567;28;20039;-74
2022/12/22 15:11:46;;;;;;;1.73;1.13;;;20.00;67.80;;;;;;4985481;28;20058;-73
2022/12/22 15:14:16;;;;;;;;;;;19.90;67.80;;;;;;4996144;28;20019;-73
2022/12/22 15:16:42;;;;;;;3.13;1.30;;;19.90;67.80;;;;;;4995815;28;19912;-73
2022/12/22 15:19:16;;;;;;;2.33;1.20;;;20.00;67.80;;;;;;4978529;28;20113;-74
2022/12/22 15:21:42;;;;;;;2.50;1.38;;;19.90;67.70;;;;;;4978035;28;20065;-74
2022/12/22 15:24:11;;;;;;;3.70;1.25;;;19.90;67.80;;;;;;4995589;28;20100;-73
2022/12/22 15:26:37;;;;;;;8.55;1.60;;;20.00;67.80;;;;;;4978480;28;20034;-73
2022/12/22 15:29:03;;;;;;;2.88;1.45;;;20.00;67.80;;;;;;4977578;28;20038;-73
2022/12/22 15:31:29;;;;;;;2.92;1.40;;;19.90;68.70;;;;;;4995363;28;20057;-73
2022/12/22 15:33:55;;;;;;;2.33;1.40;;;19.90;67.60;;;;;;4978167;28;20019;-73
2022/12/22 15:36:21;;;;;;;1.35;1.02;;;19.90;67.60;;;;;;4977763;28;20081;-74
2022/12/22 15:38:47;;;;;;;3.42;1.17;;;19.90;67.60;;;;;;4978129;28;20030;-74
2022/12/22 15:41:12;;;;;;;2.78;1.17;;;20.00;67.70;;;;;;4995409;28;20026;-73
2022/12/22 15:43:38;;;;;;;1.95;1.23;;;19.90;68.60;;;;;;4977861;28;20034;-73
2022/12/22 15:46:04;;;;;;;2.45;1.33;;;19.90;67.50;;;;;;4995192;28;20485;-73
2022/12/22 15:48:36;;;;;;;1.50;1.02;;;20.00;67.60;;;;;;4977857;28;20092;-73
2022/12/22 15:51:02;;;;;;;2.30;0.82;;;19.90;67.50;;;;;;4977801;28;20053;-73
2022/12/22 15:53:28;;;;;;;2.22;1.25;;;19.90;67.50;;;;;;4977580;28;20057;-73
2022/12/22 15:55:54;;;;;;;3.00;1.23;;;19.90;67.50;;;;;;4961480;28;20408;-73
2022/12/22 15:58:23;;;;;;;2.42;1.13;;;19.90;67.50;;;;;;4994814;28;20562;-74
2022/12/22 16:00:49;;;;;;;2.13;0.95;;;19.90;67.50;;;;;;4977757;28;20022;-73
2022/12/22 16:03:14;;;;;;;2.35;1.20;;;19.90;67.50;;;;;;4978101;28;20027;-73
2022/12/22 16:05:40;;;;;;;3.80;1.20;;;19.90;67.60;;;;;;4994508;28;20472;-73
2022/12/22 16:08:13;;;;;;;2.67;1.17;;;19.90;67.50;;;;;;4978111;28;20489;-75
2022/12/22 16:10:38;;;;;;;;;;;20.00;67.50;;;;;;4962155;28;20042;-73
2022/12/22 16:13:04;;;;;;;4.68;1.20;;;19.90;67.40;;;;;;4977303;28;20008;-74
2022/12/22 16:15:31;;;;;;;2.95;1.02;;;19.90;67.50;;;;;;4995030;28;20114;-73
2022/12/22 16:17:57;;;;;;;1.38;0.80;;;19.90;67.40;;;;;;4994700;28;20397;-78
2022/12/22 16:20:24;;;;;;;3.15;1.23;;;19.90;67.40;;;;;;4977019;28;20030;-76
2022/12/22 16:22:50;;;;;;;3.30;1.35;;;19.90;67.40;;;;;;4977147;28;20050;-78
2022/12/22 16:25:19;;;;;;;4.55;1.25;;;19.90;67.50;;;;;;4977186;28;20497;-76
2022/12/22 16:27:46;;;;;;;6.82;1.60;;;19.90;67.50;;;;;;4994288;28;20022;-75
2022/12/22 16:30:21;;;;;;;2.83;1.20;;;19.90;67.50;;;;;;4961347;28;20032;-76
2022/12/22 16:32:47;;;;;;;2.80;1.05;;;19.90;67.50;;;;;;4961171;28;20022;-78
2022/12/22 16:35:14;;;;;;;3.95;1.23;;;20.00;67.50;;;;;;4960457;28;20027;-76
2022/12/22 16:37:40;;;;;;;5.13;1.50;;;19.90;67.50;;;;;;4976777;28;20028;-76